Time;durP1;ratioP1;P1;durP2;ratioP2;P2;SDS_P1;SDS_P2;PMS_P1;PMS_P2;Temp;Humidity;BMP_temperature;BMP_pressure;BME280_temperature;BME280_humidity;BME280_pressure;Samples;Min_cycle;Max_cycle;Signal;HPM_P1;HPM_P2
2022/12/07 00:00:55;;;;;;;61.67;34.38;;;9.10;99.90;;;;;;5093644;28;20032;-48
2022/12/07 00:03:20;;;;;;;65.68;35.08;;;9.30;99.90;;;;;;5093362;28;20375;-49
2022/12/07 00:05:46;;;;;;;64.63;34.08;;;9.30;99.90;;;;;;5093343;28;20028;-48
2022/12/07 00:08:12;;;;;;;72.60;36.17;;;9.10;99.90;;;;;;5091784;28;20063;-48
2022/12/07 00:10:38;;;;;;;77.28;36.97;;;9.10;99.90;;;;;;5093329;28;20382;-48
2022/12/07 00:13:03;;;;;;;74.60;35.70;;;9.00;99.90;;;;;;5074557;28;20039;-48
2022/12/07 00:15:29;;;;;;;64.30;33.95;;;9.10;99.90;;;;;;5093172;28;20028;-48
2022/12/07 00:17:55;;;;;;;77.50;36.22;;;9.00;99.90;;;;;;5093570;28;20020;-48
2022/12/07 00:20:20;;;;;;;71.68;33.10;;;8.90;99.90;;;;;;5093347;28;20129;-48
2022/12/07 00:22:46;;;;;;;74.65;35.88;;;8.80;99.90;;;;;;5093376;28;20020;-48
2022/12/07 00:25:12;;;;;;;78.90;34.50;;;8.80;99.90;;;;;;5108257;28;20032;-48
2022/12/07 00:27:37;;;;;;;73.18;35.47;;;8.60;99.90;;;;;;5092944;28;20020;-48
2022/12/07 00:30:04;;;;;;;82.80;35.95;;;8.50;99.90;;;;;;5093635;28;20043;-48
2022/12/07 00:32:29;;;;;;;81.03;37.30;;;8.60;99.90;;;;;;5057403;28;20036;-48
2022/12/07 00:34:55;;;;;;;91.95;38.25;;;8.50;99.90;;;;;;5093104;28;20020;-48
2022/12/07 00:37:21;;;;;;;83.88;38.50;;;8.50;99.90;;;;;;5108142;28;20032;-48
2022/12/07 00:39:47;;;;;;;96.88;39.40;;;8.50;99.90;;;;;;5092874;28;20039;-48
2022/12/07 00:42:12;;;;;;;90.15;38.38;;;8.60;99.90;;;;;;5093716;28;20048;-48
2022/12/07 00:44:38;;;;;;;94.40;40.95;;;8.70;99.90;;;;;;5093049;28;20059;-48
2022/12/07 00:47:04;;;;;;;93.88;42.55;;;8.80;99.90;;;;;;5093071;28;20031;-48
2022/12/07 00:49:30;;;;;;;92.65;40.90;;;8.90;99.90;;;;;;5093160;28;20088;-48
2022/12/07 00:51:55;;;;;;;92.95;39.42;;;8.90;99.90;;;;;;5092948;28;20475;-48
2022/12/07 00:54:21;;;;;;;88.88;39.28;;;9.10;99.90;;;;;;5074354;28;20032;-48
2022/12/07 00:56:47;;;;;;;95.40;39.72;;;9.20;99.90;;;;;;5096156;28;20409;-48
2022/12/07 00:59:16;;;;;;;87.80;40.30;;;9.40;99.90;;;;;;5097276;28;20062;-48
2022/12/07 01:01:42;;;;;;;105.63;41.45;;;9.60;99.90;;;;;;5097055;28;20028;-48
2022/12/07 01:04:08;;;;;;;88.00;39.50;;;9.70;99.90;;;;;;5097471;28;20375;-48
2022/12/07 01:06:33;;;;;;;79.82;37.83;;;9.70;99.90;;;;;;5096701;28;20028;-48
2022/12/07 01:09:00;;;;;;;80.13;36.28;;;9.80;99.90;;;;;;5096943;28;20035;-48
2022/12/07 01:11:28;;;;;;;80.43;37.00;;;9.80;99.90;;;;;;5096744;28;20028;-48
2022/12/07 01:13:56;;;;;;;90.00;39.42;;;9.70;99.90;;;;;;5097041;28;20043;-48
2022/12/07 01:16:24;;;;;;;97.18;41.55;;;9.80;99.90;;;;;;5097050;28;20077;-48
2022/12/07 01:18:53;;;;;;;110.30;46.47;;;9.90;99.90;;;;;;5096487;28;20092;-48
2022/12/07 01:21:24;;;;;;;90.40;39.17;;;9.90;99.90;;;;;;5102390;27;20089;-48
2022/12/07 01:23:50;;;;;;;89.38;39.78;;;9.90;99.90;;;;;;5106482;28;20484;-48
2022/12/07 01:26:20;;;;;;;75.97;35.85;;;9.90;99.90;;;;;;5117088;28;20608;-47
2022/12/07 01:28:46;;;;;;;70.70;32.63;;;9.80;99.90;;;;;;5116712;28;20043;-47
2022/12/07 01:31:15;;;;;;;66.07;33.33;;;9.70;99.90;;;;;;5116754;28;20031;-48
2022/12/07 01:33:41;;;;;;;67.55;32.40;;;9.60;99.90;;;;;;5116620;28;20057;-48
2022/12/07 01:36:15;;;;;;;69.43;33.38;;;9.70;99.90;;;;;;5110783;28;20032;-47
2022/12/07 01:38:41;;;;;;;70.07;34.50;;;9.80;99.90;;;;;;5093966;28;20036;-48
2022/12/07 01:41:08;;;;;;;96.07;45.83;;;9.80;99.90;;;;;;5094021;28;20368;-47
2022/12/07 01:43:34;;;;;;;107.57;52.65;;;9.80;99.90;;;;;;5093969;28;20028;-49
2022/12/07 01:46:01;;;;;;;125.90;57.08;;;9.90;99.90;;;;;;5083936;28;20032;-47
2022/12/07 01:48:38;;;;;;;93.25;45.83;;;9.90;99.90;;;;;;5114444;28;20456;-47
2022/12/07 01:51:08;;;;;;;74.75;39.97;;;9.90;99.90;;;;;;5113868;28;20106;-47
2022/12/07 01:53:38;;;;;;;59.67;31.45;;;9.90;99.90;;;;;;5114325;28;20038;-48
2022/12/07 01:56:06;;;;;;;49.75;22.83;;;9.90;99.90;;;;;;5114116;28;20563;-47
2022/12/07 01:58:31;;;;;;;45.75;23.85;;;9.80;99.90;;;;;;5114137;28;20533;-48
2022/12/07 02:00:57;;;;;;;46.72;22.75;;;9.80;99.90;;;;;;5073221;28;20037;-48
2022/12/07 02:03:35;;;;;;;50.08;23.00;;;9.50;99.90;;;;;;5040127;28;20084;-47
2022/12/07 02:06:00;;;;;;;42.50;20.70;;;9.50;99.90;;;;;;5039883;28;20048;-48
2022/12/07 02:08:27;;;;;;;37.53;19.23;;;9.20;99.90;;;;;;5072864;28;20544;-48
2022/12/07 02:10:52;;;;;;;42.58;19.42;;;9.10;99.90;;;;;;5073152;28;20033;-48
2022/12/07 02:13:28;;;;;;;45.30;18.75;;;8.80;99.90;;;;;;5090198;28;20082;-48
2022/12/07 02:16:02;;;;;;;36.15;18.48;;;8.80;99.90;;;;;;5073059;28;20098;-48
2022/12/07 02:18:30;;;;;;;35.90;18.27;;;8.60;99.90;;;;;;5073280;28;20094;-48
2022/12/07 02:21:19;;;;;;;37.53;16.45;;;8.50;99.90;;;;;;5056030;28;20044;-48
2022/12/07 02:24:13;;;;;;;33.88;16.27;;;8.40;99.90;;;;;;5069867;28;20086;-48
2022/12/07 02:27:00;;;;;;;35.08;14.95;;;8.30;99.90;;;;;;5065596;28;20086;-48
2022/12/07 02:29:54;;;;;;;31.92;15.20;;;8.20;99.90;;;;;;5073136;28;20045;-48
2022/12/07 02:32:25;;;;;;;35.22;15.95;;;;;;;;;;5052793;28;20041;-47
2022/12/07 02:34:58;;;;;;;39.50;16.85;;;8.10;99.90;;;;;;5019464;28;20041;-48
2022/12/07 02:37:38;;;;;;;39.63;15.90;;;8.20;99.90;;;;;;5056278;28;20041;-48
2022/12/07 02:40:16;;;;;;;36.78;15.57;;;8.10;99.90;;;;;;5092813;28;20549;-48
2022/12/07 02:42:49;;;;;;;34.38;15.05;;;8.10;99.90;;;;;;5092837;28;20032;-48
2022/12/07 02:45:19;;;;;;;35.08;15.07;;;8.10;99.90;;;;;;5092881;28;20063;-48
2022/12/07 02:47:50;;;;;;;39.45;18.00;;;8.00;99.90;;;;;;5092671;28;20033;-48
2022/12/07 02:50:21;;;;;;;41.60;16.15;;;8.20;99.90;;;;;;5092828;28;20040;-48
2022/12/07 02:52:47;;;;;;;39.88;16.95;;;8.20;99.90;;;;;;5092624;28;20479;-48
2022/12/07 02:55:15;;;;;;;39.47;16.75;;;8.20;99.90;;;;;;5092683;28;20024;-48
2022/12/07 02:57:58;;;;;;;42.90;18.77;;;8.30;99.90;;;;;;5059007;28;20546;-48
2022/12/07 03:00:24;;;;;;;41.40;17.90;;;8.30;99.90;;;;;;5092521;28;20089;-47
2022/12/07 03:02:59;;;;;;;43.28;20.27;;;8.20;99.90;;;;;;5092445;28;20473;-48
2022/12/07 03:05:52;;;;;;;40.30;19.98;;;8.20;99.90;;;;;;5092436;28;20493;-48
2022/12/07 03:08:24;;;;;;;39.05;17.85;;;8.50;99.90;;;;;;5092703;28;20024;-47
2022/12/07 03:11:25;;;;;;;41.70;18.85;;;8.20;99.90;;;;;;5092773;28;20040;-48
2022/12/07 03:14:00;;;;;;;44.80;20.83;;;8.20;99.90;;;;;;5092060;28;20032;-48
2022/12/07 03:16:41;;;;;;;45.50;18.73;;;8.20;99.90;;;;;;5092412;28;20478;-48
2022/12/07 03:19:17;;;;;;;45.00;19.40;;;8.20;99.90;;;;;;5091149;28;20047;-48
2022/12/07 03:22:01;;;;;;;41.38;19.48;;;8.30;99.90;;;;;;5092177;28;20055;-48
2022/12/07 03:24:52;;;;;;;43.22;18.85;;;8.40;99.90;;;;;;5092293;28;20032;-47
2022/12/07 03:27:51;;;;;;;45.63;18.83;;;8.40;99.90;;;;;;5091970;28;20425;-47
2022/12/07 03:30:20;;;;;;;39.53;18.10;;;8.40;99.90;;;;;;5089040;28;20052;-48
2022/12/07 03:32:46;;;;;;;45.47;23.15;;;8.40;99.90;;;;;;5092381;28;20052;-48
2022/12/07 03:35:18;;;;;;;47.67;21.13;;;8.50;99.90;;;;;;5058344;28;20063;-48
2022/12/07 03:37:50;;;;;;;52.58;25.10;;;8.50;99.90;;;;;;5058091;28;20032;-48
2022/12/07 03:40:39;;;;;;;40.45;18.20;;;8.40;99.90;;;;;;5091981;28;20507;-48
2022/12/07 03:43:05;;;;;;;38.33;18.92;;;8.40;99.90;;;;;;5092025;28;20060;-48
2022/12/07 03:45:41;;;;;;;43.67;19.50;;;8.40;99.90;;;;;;5057970;28;20103;-48
2022/12/07 03:48:28;;;;;;;37.90;20.65;;;8.40;99.90;;;;;;5091593;28;20028;-48
2022/12/07 03:51:13;;;;;;;40.20;19.42;;;8.50;99.90;;;;;;5093197;28;20113;-48
2022/12/07 03:54:07;;;;;;;38.38;17.85;;;8.50;99.90;;;;;;5094045;28;20027;-48
2022/12/07 03:56:34;;;;;;;36.22;17.67;;;8.60;99.90;;;;;;5091721;28;20043;-48
2022/12/07 03:59:00;;;;;;;42.10;19.08;;;8.60;99.90;;;;;;5091345;28;20040;-48
2022/12/07 04:01:25;;;;;;;42.83;20.83;;;8.70;99.90;;;;;;5074166;28;20036;-48
2022/12/07 04:03:51;;;;;;;36.35;21.13;;;8.80;99.90;;;;;;5091598;28;20063;-48
2022/12/07 04:06:17;;;;;;;44.35;24.67;;;8.80;99.90;;;;;;5091497;28;20027;-48
2022/12/07 04:08:43;;;;;;;44.83;24.10;;;9.00;99.90;;;;;;5091407;28;20039;-48
2022/12/07 04:11:08;;;;;;;35.83;18.17;;;9.10;99.90;;;;;;5082156;28;20052;-48
2022/12/07 04:14:18;;;;;;;35.53;16.65;;;9.10;99.90;;;;;;5071260;28;20037;-48
2022/12/07 04:16:20;;;;;;;38.47;16.98;;;9.00;99.90;;;;;;5084824;28;20040;-48
2022/12/07 04:18:46;;;;;;;37.90;16.30;;;8.90;99.90;;;;;;5108123;28;20111;-49
2022/12/07 04:21:11;;;;;;;34.83;14.98;;;8.80;99.90;;;;;;5091210;28;20036;-50
2022/12/07 04:23:37;;;;;;;33.17;17.20;;;8.70;99.90;;;;;;5091226;28;20537;-48
2022/12/07 04:26:03;;;;;;;35.92;16.65;;;8.80;99.90;;;;;;5091107;28;20045;-48
2022/12/07 04:28:28;;;;;;;35.10;17.38;;;8.80;99.90;;;;;;5084349;28;20051;-48
2022/12/07 04:30:54;;;;;;;33.63;15.60;;;8.80;99.90;;;;;;5070736;28;20036;-48
2022/12/07 04:33:20;;;;;;;31.50;15.18;;;8.70;99.90;;;;;;5086276;28;20039;-48
2022/12/07 04:35:45;;;;;;;29.17;15.57;;;8.50;99.90;;;;;;5091286;28;20051;-48
2022/12/07 04:38:11;;;;;;;36.65;15.57;;;8.50;99.90;;;;;;5091411;28;20028;-48
2022/12/07 04:40:37;;;;;;;29.70;16.20;;;8.40;99.90;;;;;;5091398;28;20062;-48
2022/12/07 04:43:03;;;;;;;36.53;18.35;;;8.80;99.90;;;;;;5092992;28;20043;-48
2022/12/07 04:45:28;;;;;;;38.88;20.02;;;8.60;99.90;;;;;;5091317;28;20036;-48
2022/12/07 04:47:54;;;;;;;34.92;17.25;;;8.70;99.90;;;;;;5093102;28;20028;-48
2022/12/07 04:50:20;;;;;;;31.52;14.48;;;8.70;99.90;;;;;;5102571;28;20028;-48
2022/12/07 04:52:45;;;;;;;34.55;17.27;;;8.40;99.90;;;;;;5077723;28;20027;-48
2022/12/07 04:55:11;;;;;;;31.60;15.30;;;8.40;99.90;;;;;;5111546;28;20114;-48
2022/12/07 04:57:37;;;;;;;34.60;16.08;;;8.40;99.90;;;;;;5113367;28;20074;-48
2022/12/07 05:00:03;;;;;;;34.05;16.58;;;8.40;99.90;;;;;;5113145;28;20039;-48
2022/12/07 05:02:29;;;;;;;33.20;14.57;;;8.40;99.90;;;;;;5113360;28;20379;-48
2022/12/07 05:04:54;;;;;;;30.52;13.90;;;8.30;99.90;;;;;;5113465;28;20055;-48
2022/12/07 05:07:20;;;;;;;32.00;14.52;;;8.20;99.90;;;;;;5113506;28;20086;-48
2022/12/07 05:09:46;;;;;;;27.48;15.13;;;8.30;99.90;;;;;;5113168;28;20030;-48
2022/12/07 05:12:11;;;;;;;31.33;16.45;;;8.30;99.90;;;;;;5113083;28;20064;-48
2022/12/07 05:14:37;;;;;;;30.92;15.90;;;8.60;99.90;;;;;;5113480;28;20164;-48
2022/12/07 05:17:03;;;;;;;31.25;18.35;;;8.80;99.90;;;;;;5113115;28;20467;-48
2022/12/07 05:19:29;;;;;;;33.55;17.58;;;9.00;99.90;;;;;;5113297;28;20609;-48
2022/12/07 05:21:55;;;;;;;32.63;19.35;;;9.10;99.90;;;;;;5113101;28;20107;-48
2022/12/07 05:24:21;;;;;;;38.30;22.98;;;9.20;99.90;;;;;;5113087;28;20034;-48
2022/12/07 05:26:46;;;;;;;41.42;23.27;;;9.20;99.90;;;;;;5113330;28;20034;-48
2022/12/07 05:29:16;;;;;;;31.95;18.67;;;9.40;99.90;;;;;;5112842;28;20058;-48
2022/12/07 05:31:43;;;;;;;46.33;24.33;;;9.40;99.90;;;;;;5113096;28;20031;-48
2022/12/07 05:34:10;;;;;;;48.60;25.70;;;9.40;99.90;;;;;;5112983;28;20387;-48
2022/12/07 05:36:36;;;;;;;40.22;26.27;;;9.20;99.90;;;;;;5113111;28;20026;-48
2022/12/07 05:39:02;;;;;;;37.45;22.83;;;9.20;99.90;;;;;;5113162;28;20352;-48
2022/12/07 05:44:12;;;;;;;43.40;25.83;;;9.20;99.90;;;;;;5109842;28;20093;-48
2022/12/07 05:46:38;;;;;;;36.53;23.45;;;9.10;99.90;;;;;;5116775;28;20028;-48
2022/12/07 05:49:03;;;;;;;35.60;21.63;;;9.10;99.90;;;;;;5080757;28;20042;-48
2022/12/07 05:51:29;;;;;;;42.42;24.35;;;9.20;99.90;;;;;;5080620;28;20060;-48
2022/12/07 05:53:55;;;;;;;42.08;24.92;;;9.30;99.90;;;;;;5116316;28;20523;-48
2022/12/07 05:56:21;;;;;;;45.58;25.50;;;9.50;99.90;;;;;;5116336;28;20080;-48
2022/12/07 06:01:30;;;;;;;28.98;18.30;;;9.70;99.90;;;;;;5116273;28;20107;-48
2022/12/07 06:03:56;;;;;;;31.63;17.77;;;9.70;99.90;;;;;;5116243;28;20119;-48
2022/12/07 06:06:22;;;;;;;35.38;20.60;;;9.60;99.90;;;;;;5116056;28;20020;-48
2022/12/07 06:08:48;;;;;;;28.98;16.77;;;9.60;99.90;;;;;;5116386;28;20450;-48
2022/12/07 06:13:58;;;;;;;23.05;13.35;;;9.60;99.90;;;;;;5115985;28;20030;-48
2022/12/07 06:16:23;;;;;;;20.40;13.80;;;9.30;99.90;;;;;;5115826;28;20386;-48
2022/12/07 06:18:49;;;;;;;23.33;16.75;;;9.10;99.90;;;;;;5115172;28;20050;-48
2022/12/07 06:21:15;;;;;;;19.95;12.48;;;9.10;99.90;;;;;;5094166;28;20096;-49
2022/12/07 06:23:41;;;;;;;19.58;12.07;;;9.00;99.90;;;;;;5094405;28;20031;-49
2022/12/07 06:26:07;;;;;;;13.65;10.25;;;8.90;99.90;;;;;;5115199;28;20022;-48
2022/12/07 06:28:32;;;;;;;24.65;19.73;;;8.70;99.90;;;;;;5115096;28;20047;-48
2022/12/07 06:30:59;;;;;;;19.02;13.13;;;9.00;99.90;;;;;;5114801;28;20027;-48
2022/12/07 06:33:25;;;;;;;20.65;17.58;;;8.90;99.90;;;;;;5113849;27;20035;-48
2022/12/07 06:35:51;;;;;;;21.17;17.20;;;9.10;99.90;;;;;;5113268;28;20038;-48
2022/12/07 06:38:17;;;;;;;18.55;14.40;;;9.30;99.90;;;;;;5095076;28;20024;-47
2022/12/07 06:40:43;;;;;;;17.20;11.50;;;9.20;99.90;;;;;;5113326;28;20032;-48
2022/12/07 06:43:09;;;;;;;17.90;14.82;;;9.00;99.90;;;;;;5096333;28;20039;-48
2022/12/07 06:45:34;;;;;;;16.23;10.02;;;8.90;99.90;;;;;;5115324;28;20453;-48
2022/12/07 06:48:00;;;;;;;16.17;10.38;;;8.90;99.90;;;;;;5114856;28;20027;-48
2022/12/07 06:50:26;;;;;;;17.83;11.35;;;8.80;99.90;;;;;;5112831;28;20114;-48
2022/12/07 06:52:52;;;;;;;19.08;12.32;;;8.90;99.90;;;;;;5114792;28;20043;-48
2022/12/07 06:55:18;;;;;;;20.40;14.60;;;8.80;99.90;;;;;;5079259;28;20066;-48
2022/12/07 06:57:44;;;;;;;19.30;12.48;;;8.80;99.90;;;;;;5114486;28;20031;-48
2022/12/07 07:00:11;;;;;;;31.35;28.00;;;9.00;99.90;;;;;;5112743;28;20043;-48
2022/12/07 07:02:36;;;;;;;18.88;16.08;;;9.00;99.90;;;;;;5113092;28;20031;-48
2022/12/07 07:05:03;;;;;;;19.10;12.90;;;9.20;99.90;;;;;;5115243;28;20027;-48
2022/12/07 07:07:29;;;;;;;18.05;11.50;;;9.40;99.90;;;;;;5115107;28;20035;-48
2022/12/07 07:09:55;;;;;;;17.50;10.60;;;9.30;99.90;;;;;;5114837;28;20530;-48
2022/12/07 07:12:20;;;;;;;18.33;11.95;;;9.30;99.90;;;;;;5114859;28;20111;-48
2022/12/07 07:14:46;;;;;;;17.17;10.43;;;9.20;99.90;;;;;;5113016;28;20494;-48
2022/12/07 07:17:12;;;;;;;16.70;12.25;;;9.20;99.90;;;;;;5107223;28;20463;-48
2022/12/07 07:19:38;;;;;;;13.82;9.90;;;9.20;99.90;;;;;;5113744;28;20043;-48
2022/12/07 07:22:04;;;;;;;16.02;11.07;;;9.30;99.90;;;;;;5078534;28;20046;-48
2022/12/07 07:24:29;;;;;;;15.52;10.63;;;9.50;99.90;;;;;;5114757;28;20471;-48
2022/12/07 07:26:55;;;;;;;14.98;10.27;;;9.60;99.90;;;;;;5114955;28;20019;-48
2022/12/07 07:29:21;;;;;;;15.43;10.73;;;9.60;99.90;;;;;;5114286;28;20047;-49
2022/12/07 07:31:47;;;;;;;15.15;10.05;;;9.60;99.90;;;;;;5113301;28;20463;-49
2022/12/07 07:34:13;;;;;;;13.48;10.80;;;9.40;99.90;;;;;;5093740;28;20052;-48
2022/12/07 07:36:38;;;;;;;18.50;12.13;;;9.60;99.90;;;;;;5106085;28;20028;-49
2022/12/07 07:39:04;;;;;;;19.15;13.50;;;9.60;99.90;;;;;;5075931;28;20042;-49
2022/12/07 07:41:31;;;;;;;24.42;13.60;;;9.60;99.90;;;;;;5112815;28;20031;-47
2022/12/07 07:43:57;;;;;;;18.27;12.52;;;9.70;99.90;;;;;;5112909;28;20144;-47
2022/12/07 07:46:22;;;;;;;17.05;12.45;;;9.70;99.90;;;;;;5112569;28;20088;-48
2022/12/07 07:48:48;;;;;;;16.30;11.98;;;9.70;99.90;;;;;;5112514;28;20027;-48
2022/12/07 07:51:14;;;;;;;13.95;10.73;;;9.70;99.90;;;;;;5093665;28;20092;-48
2022/12/07 07:53:40;;;;;;;18.40;14.30;;;9.70;99.90;;;;;;5113208;28;20028;-48
2022/12/07 07:56:05;;;;;;;16.27;11.80;;;9.70;99.90;;;;;;5113157;28;20024;-47
2022/12/07 07:58:31;;;;;;;16.08;10.65;;;9.80;99.90;;;;;;5113303;28;20024;-47
2022/12/07 08:00:57;;;;;;;15.55;10.85;;;9.80;99.90;;;;;;5112956;28;20023;-47
2022/12/07 08:03:22;;;;;;;15.55;10.43;;;9.80;99.90;;;;;;5093844;28;20119;-47
2022/12/07 08:05:48;;;;;;;13.77;9.07;;;9.90;99.90;;;;;;5109743;28;20046;-47
2022/12/07 08:08:14;;;;;;;16.38;11.02;;;9.90;99.90;;;;;;5059543;28;20100;-47
2022/12/07 08:10:40;;;;;;;14.30;9.75;;;9.80;99.90;;;;;;5110337;28;20402;-48
2022/12/07 08:13:12;;;;;;;15.52;10.05;;;9.80;99.90;;;;;;5110400;28;20019;-47
2022/12/07 08:15:39;;;;;;;17.08;11.90;;;9.80;99.90;;;;;;5110279;28;20036;-47
2022/12/07 08:18:05;;;;;;;17.08;11.98;;;9.80;99.90;;;;;;5110280;28;20036;-47
2022/12/07 08:20:32;;;;;;;18.08;12.77;;;9.70;99.90;;;;;;5110101;28;20051;-47
2022/12/07 08:22:58;;;;;;;19.65;12.40;;;9.60;99.90;;;;;;5110245;28;20031;-48
2022/12/07 08:25:24;;;;;;;16.80;12.65;;;9.30;99.90;;;;;;5110237;28;20161;-47
2022/12/07 08:27:51;;;;;;;18.70;13.60;;;9.30;99.90;;;;;;5109800;28;20051;-47
2022/12/07 08:30:17;;;;;;;18.92;13.23;;;9.20;99.90;;;;;;5110111;28;20028;-47
2022/12/07 08:32:46;;;;;;;19.08;14.40;;;9.20;99.90;;;;;;5110031;28;20072;-48
2022/12/07 08:35:13;;;;;;;21.08;15.60;;;9.10;99.90;;;;;;5110227;28;20032;-48
2022/12/07 08:37:39;;;;;;;19.20;14.20;;;9.00;99.90;;;;;;5111407;28;20482;-48
2022/12/07 08:40:07;;;;;;;21.25;15.68;;;8.90;99.90;;;;;;5112641;28;20031;-48
2022/12/07 08:42:39;;;;;;;26.40;18.10;;;8.90;99.90;;;;;;5112319;28;20030;-48
2022/12/07 08:45:10;;;;;;;;;;;9.00;99.90;;;;;;5112746;28;20050;-47
2022/12/07 08:47:40;;;;;;;23.15;14.27;;;9.00;99.90;;;;;;5112281;28;19907;-48
2022/12/07 08:50:07;;;;;;;24.92;16.00;;;8.90;99.90;;;;;;5112740;28;20031;-48
2022/12/07 08:52:35;;;;;;;26.08;17.52;;;8.80;99.90;;;;;;5110093;28;20040;-48
2022/12/07 08:55:03;;;;;;;25.75;18.50;;;8.90;99.90;;;;;;5112484;28;20035;-48
2022/12/07 08:57:29;;;;;;;26.75;17.88;;;8.80;99.90;;;;;;5110087;28;20031;-48
2022/12/07 08:59:55;;;;;;;20.45;14.80;;;8.90;99.90;;;;;;5112564;28;20038;-48
2022/12/07 09:02:21;;;;;;;13.25;10.48;;;8.90;99.90;;;;;;5112224;28;20032;-48
2022/12/07 09:04:46;;;;;;;15.95;11.00;;;8.90;99.90;;;;;;5112090;28;20024;-48
2022/12/07 09:07:12;;;;;;;15.13;11.43;;;8.90;99.90;;;;;;5076039;28;20076;-48
2022/12/07 09:09:38;;;;;;;17.02;12.13;;;8.90;99.90;;;;;;5112265;28;20028;-48
2022/12/07 09:12:04;;;;;;;14.65;11.50;;;9.00;99.90;;;;;;5112499;28;20111;-47
2022/12/07 09:14:30;;;;;;;14.95;12.02;;;9.30;99.90;;;;;;5112221;28;20023;-47
2022/12/07 09:17:05;;;;;;;17.95;13.23;;;9.20;99.90;;;;;;5112136;28;20066;-48
2022/12/07 09:19:31;;;;;;;16.65;12.65;;;9.20;99.90;;;;;;5115885;28;20039;-48
2022/12/07 09:21:56;;;;;;;15.00;11.25;;;9.30;99.90;;;;;;5079507;28;20027;-47
2022/12/07 09:24:22;;;;;;;21.35;14.73;;;9.40;99.90;;;;;;5113702;28;20110;-48
2022/12/07 09:26:48;;;;;;;24.25;17.88;;;9.50;99.90;;;;;;5096007;28;20027;-48
2022/12/07 09:29:14;;;;;;;23.17;17.45;;;9.50;99.90;;;;;;5113547;28;20052;-48
2022/12/07 09:31:40;;;;;;;16.63;12.05;;;9.60;99.90;;;;;;5115644;28;20028;-48
2022/12/07 09:34:06;;;;;;;13.95;9.82;;;9.50;99.90;;;;;;5113655;28;20035;-47
2022/12/07 09:36:32;;;;;;;13.68;10.52;;;9.50;99.90;;;;;;5115944;28;20028;-48
2022/12/07 09:38:58;;;;;;;13.00;9.82;;;9.60;99.90;;;;;;5096297;28;20395;-48
2022/12/07 09:41:26;;;;;;;12.50;8.93;;;9.60;99.90;;;;;;5116032;28;20031;-48
2022/12/07 09:43:55;;;;;;;12.32;9.27;;;9.70;99.90;;;;;;5115493;28;20107;-48
2022/12/07 09:46:21;;;;;;;12.63;9.15;;;9.60;99.90;;;;;;5114678;28;20028;-48
2022/12/07 09:48:49;;;;;;;13.98;9.23;;;9.60;99.90;;;;;;5114938;28;20039;-48
2022/12/07 09:51:23;;;;;;;12.38;9.45;;;9.50;99.90;;;;;;5115412;28;20042;-48
2022/12/07 09:53:50;;;;;;;15.98;11.25;;;9.60;99.90;;;;;;5115536;28;20024;-48
2022/12/07 09:56:18;;;;;;;20.80;17.02;;;9.70;99.90;;;;;;5092398;28;20120;-48
2022/12/07 09:58:45;;;;;;;15.07;11.77;;;9.70;99.90;;;;;;5092332;28;20032;-48
2022/12/07 10:01:15;;;;;;;17.80;13.43;;;9.40;99.90;;;;;;5092402;28;20047;-48
2022/12/07 10:03:54;;;;;;;51.95;32.70;;;9.50;99.90;;;;;;5091914;28;20024;-50
2022/12/07 10:06:20;;;;;;;26.85;19.85;;;9.60;99.90;;;;;;5058656;28;20438;-48
2022/12/07 10:08:47;;;;;;;18.70;16.10;;;9.60;99.90;;;;;;5092192;28;20032;-48
2022/12/07 10:11:14;;;;;;;15.63;13.70;;;9.70;99.90;;;;;;5058538;28;20089;-47
2022/12/07 10:13:48;;;;;;;15.35;10.80;;;9.70;99.90;;;;;;5091779;28;20137;-48
2022/12/07 10:16:38;;;;;;;16.95;12.45;;;9.70;99.90;;;;;;5092212;28;20043;-47
2022/12/07 10:19:24;;;;;;;13.55;10.93;;;9.70;99.90;;;;;;5091935;28;20036;-47
2022/12/07 10:22:19;;;;;;;20.17;15.45;;;9.80;99.90;;;;;;5091488;28;20036;-48
2022/12/07 10:24:47;;;;;;;17.38;13.90;;;9.90;99.90;;;;;;5031717;28;20047;-47
2022/12/07 10:27:29;;;;;;;16.25;12.82;;;9.70;99.90;;;;;;5051036;28;20036;-48
2022/12/07 10:29:58;;;;;;;13.00;10.38;;;10.00;99.90;;;;;;5071076;28;20049;-47
2022/12/07 10:32:35;;;;;;;12.77;9.68;;;9.50;99.90;;;;;;5031693;28;20045;-47
2022/12/07 10:35:21;;;;;;;11.45;8.75;;;9.50;99.90;;;;;;5031480;28;20042;-47
2022/12/07 10:37:47;;;;;;;12.65;9.73;;;9.50;99.90;;;;;;4991938;28;20093;-48
2022/12/07 10:40:30;;;;;;;13.85;11.02;;;9.70;99.90;;;;;;4992225;28;20461;-48
2022/12/07 10:43:14;;;;;;;11.50;9.48;;;9.80;99.90;;;;;;4942297;28;20043;-47
2022/12/07 10:45:51;;;;;;;13.10;10.00;;;9.70;99.90;;;;;;4989922;28;20034;-48
2022/12/07 10:48:47;;;;;;;11.65;8.88;;;9.60;99.90;;;;;;4972676;28;20487;-48
2022/12/07 10:51:44;;;;;;;12.88;10.73;;;9.70;99.90;;;;;;4972684;28;20093;-48
2022/12/07 10:54:18;;;;;;;20.52;14.15;;;9.50;99.90;;;;;;4972443;28;20089;-48
2022/12/07 10:57:14;;;;;;;22.05;16.15;;;9.40;99.90;;;;;;4972432;28;20031;-48
2022/12/07 11:00:20;;;;;;;18.20;13.88;;;9.60;99.90;;;;;;4988281;28;20038;-48
2022/12/07 11:03:10;;;;;;;16.33;12.15;;;9.00;99.90;;;;;;4980947;28;20034;-48
2022/12/07 11:06:10;;;;;;;18.05;13.70;;;8.90;99.90;;;;;;5011332;28;20026;-48
2022/12/07 11:08:48;;;;;;;19.98;14.52;;;8.80;99.90;;;;;;5051528;28;20506;-48
2022/12/07 11:11:26;;;;;;;19.30;14.38;;;9.00;99.90;;;;;;5091131;28;20487;-48
2022/12/07 11:13:58;;;;;;;26.50;17.30;;;9.10;99.90;;;;;;5090560;28;20023;-48
2022/12/07 11:16:57;;;;;;;26.15;18.13;;;9.10;99.90;;;;;;5056715;28;20048;-48
2022/12/07 11:20:00;;;;;;;44.85;30.13;;;9.00;99.90;;;;;;5090724;28;20051;-49
2022/12/07 11:22:44;;;;;;;29.38;22.30;;;9.00;99.90;;;;;;5084683;28;20023;-49
2022/12/07 11:25:29;;;;;;;25.10;18.77;;;9.30;99.90;;;;;;5085049;28;20055;-48
2022/12/07 11:28:19;;;;;;;20.52;15.35;;;9.40;99.90;;;;;;5090366;28;20044;-48
2022/12/07 11:31:05;;;;;;;23.10;18.42;;;9.30;99.90;;;;;;5090403;28;20046;-47
2022/12/07 11:33:42;;;;;;;29.83;22.98;;;9.20;99.90;;;;;;5072966;28;20032;-48
2022/12/07 11:36:24;;;;;;;22.63;18.63;;;9.30;99.90;;;;;;5088663;28;20035;-49
2022/12/07 11:38:54;;;;;;;;;;;9.40;99.90;;;;;;5089051;28;20059;-48
2022/12/07 11:41:28;;;;;;;15.40;12.63;;;9.30;99.90;;;;;;5085078;28;19930;-48
2022/12/07 11:44:07;;;;;;;15.38;12.35;;;9.40;99.90;;;;;;5106800;28;20505;-48
2022/12/07 11:47:06;;;;;;;13.02;11.20;;;9.50;99.90;;;;;;5088813;28;20059;-48
2022/12/07 11:49:51;;;;;;;16.23;13.32;;;9.80;99.90;;;;;;5089168;28;20036;-48
2022/12/07 11:52:54;;;;;;;15.65;12.57;;;10.00;99.90;;;;;;5080737;28;20040;-48
2022/12/07 11:55:24;;;;;;;;;;;10.20;99.90;;;;;;5063288;28;20485;-48
2022/12/07 11:57:58;;;;;;;9.73;8.30;;;10.30;99.90;;;;;;5069650;28;19947;-47
2022/12/07 12:00:23;;;;;;;17.27;13.57;;;10.80;99.90;;;;;;5069329;28;20050;-47
2022/12/07 12:03:02;;;;;;;14.15;11.63;;;10.10;99.90;;;;;;5051937;28;20040;-48
2022/12/07 12:05:29;;;;;;;14.32;9.57;;;10.10;99.90;;;;;;5068833;28;20051;-47
2022/12/07 12:08:16;;;;;;;17.95;13.60;;;10.20;99.90;;;;;;5065646;28;20049;-48
2022/12/07 12:11:05;;;;;;;25.77;18.63;;;10.30;99.90;;;;;;5058236;28;20033;-49
2022/12/07 12:14:00;;;;;;;28.98;22.15;;;10.40;99.90;;;;;;5049848;28;20037;-48
2022/12/07 12:16:37;;;;;;;18.85;14.32;;;10.50;99.90;;;;;;5040518;28;20140;-48
2022/12/07 12:19:31;;;;;;;17.63;12.73;;;10.40;99.90;;;;;;5069614;28;20036;-49
2022/12/07 12:22:09;;;;;;;23.17;16.70;;;10.50;99.90;;;;;;5066446;28;20047;-49
2022/12/07 12:24:37;;;;;;;23.25;17.88;;;10.50;99.90;;;;;;5080147;28;20036;-49
2022/12/07 12:27:07;;;;;;;26.92;19.98;;;10.60;99.90;;;;;;5098795;28;20548;-49
2022/12/07 12:29:39;;;;;;;35.47;25.35;;;10.60;99.90;;;;;;5092269;28;20043;-49
2022/12/07 12:32:28;;;;;;;;;;;10.60;99.90;;;;;;5104323;28;20058;-49
2022/12/07 12:34:54;;;;;;;40.28;27.92;;;10.60;99.90;;;;;;5092240;28;20014;-49
2022/12/07 12:37:35;;;;;;;40.40;27.90;;;10.70;99.90;;;;;;5124507;28;20458;-48
2022/12/07 12:40:15;;;;;;;30.33;22.95;;;10.70;99.90;;;;;;5106650;28;20024;-49
2022/12/07 12:42:55;;;;;;;23.15;19.80;;;10.70;99.90;;;;;;5101847;28;20028;-50
2022/12/07 12:45:23;;;;;;;21.15;16.02;;;10.80;99.90;;;;;;5092515;28;20039;-50
2022/12/07 12:48:03;;;;;;;21.38;15.65;;;10.50;99.90;;;;;;5107841;28;20028;-50
2022/12/07 12:50:37;;;;;;;16.80;13.63;;;10.50;99.90;;;;;;5112347;28;20031;-50
2022/12/07 12:53:22;;;;;;;11.10;9.90;;;10.30;99.90;;;;;;5096873;28;20114;-49
2022/12/07 12:56:16;;;;;;;14.75;11.23;;;10.00;99.90;;;;;;5116513;28;20107;-49
2022/12/07 12:58:45;;;;;;;11.30;9.48;;;9.90;99.90;;;;;;5114247;28;20360;-49
2022/12/07 13:01:38;;;;;;;13.60;10.27;;;10.00;99.90;;;;;;5114282;28;20044;-49
2022/12/07 13:04:21;;;;;;;16.20;12.52;;;9.70;99.90;;;;;;5116653;28;20032;-49
2022/12/07 13:06:47;;;;;;;14.25;11.82;;;9.70;99.90;;;;;;5116532;28;20032;-48